Etusivu
METAR-TAF:

METAR-TAF

Lentoasemat :

Makkovik, Newfoundland ja Labrador, Kanada

Leveyspiiri: 55-05N, Pituuspiiri: 059-11W, korkeus merenpinnasta: 71 m

Tämänhetkinen sää

Tämä raportti tehtiin 2 tuntia ja 58 minuuttia sitten, kello 21.00 UTC
Tuuli 3 kn etelästä
Lämpötila -18°C
Kosteus 77%
Ilmanpaine 1005 hPa
Näkyvyys: 24.1 km
Muutamia pilviä 24000 ft:n korkeudessa

METAR: CYFT 282100Z 17003KT 15SM FEW240 M18/M21 A2968 RMK CI1 CI TR LAST STFD OBS/NEXT291000Z SLP062

Aika: 19:58 (23:58 UTC)


TAF: puuttuu

Säähavainnot ja -ennusteet yli 4000 lentoasemalta (METAR- ja TAF-raportit).

Käytössä olevat sääasemat on merkitty karttaan keltaisilla ja punaisilla pisteillä.

Aseta hiiri pisteen päälle nähdäksesi sääaseman nimen.

Klikkaa sitten nähdäksesi säähavainnot ja -ennusteet.

Kartan vaihtaminen: klikkaa mustalla rastilla varustettuja vihreitä pisteitä, niin voit zoomata sisään; viivalla varustettua vihreää pistettä, niin voit zoomata ulos tai vihreitä nuolia, niin pääset viereisille kartoille.


METAR-TAF: